Time;durP1;ratioP1;P1;durP2;ratioP2;P2;SDS_P1;SDS_P2;PMS_P1;PMS_P2;Temp;Humidity;BMP_temperature;BMP_pressure;BME280_temperature;BME280_humidity;BME280_pressure;Samples;Min_cycle;Max_cycle;Signal;HPM_P1;HPM_P2
2022/03/19 05:02:34;;;;;;;32.47;20.23;;;0.40;96.30;;;;;;4931826;29;20479;-76
2022/03/19 05:05:00;;;;;;;32.13;19.83;;;0.40;96.30;;;;;;4909057;29;20964;-76
2022/03/19 05:07:26;;;;;;;38.63;22.60;;;0.50;96.30;;;;;;4898465;29;20176;-78
2022/03/19 05:12:41;;;;;;;38.23;24.40;;;0.50;96.30;;;;;;4897219;29;20463;-77
2022/03/19 05:15:10;;;;;;;48.27;24.40;;;0.50;96.30;;;;;;4898470;29;20410;-80
2022/03/19 05:17:36;;;;;;;34.73;22.00;;;0.50;96.30;;;;;;4883374;29;20420;-81
2022/03/19 05:20:03;;;;;;;33.87;22.03;;;0.50;96.30;;;;;;4883809;29;20417;-81
2022/03/19 05:32:43;;;;;;;30.17;21.73;;;0.00;96.30;;;;;;4920372;29;20476;-77
2022/03/19 05:35:09;;;;;;;37.67;22.47;;;0.00;96.30;;;;;;4922483;29;20416;-80
2022/03/19 05:37:34;;;;;;;38.87;23.23;;;0.20;96.30;;;;;;4925050;29;20503;-76
2022/03/19 05:40:04;;;;;;;38.60;22.40;;;0.30;96.30;;;;;;4904891;29;20553;-79
2022/03/19 05:42:29;;;;;;;36.43;21.80;;;0.30;96.30;;;;;;4905201;29;20219;-77
2022/03/19 05:44:55;;;;;;;40.13;23.90;;;0.40;96.30;;;;;;4922032;29;20416;-77
2022/03/19 05:47:23;;;;;;;39.13;24.93;;;0.40;96.30;;;;;;4921822;29;20710;-77
2022/03/19 05:49:48;;;;;;;42.00;23.60;;;0.50;96.30;;;;;;4904587;29;20208;-77
2022/03/19 06:33:39;;;;;;;27.90;16.47;;;1.50;96.30;;;;;;4920138;29;20479;-78
2022/03/19 06:38:49;;;;;;;29.27;16.43;;;1.50;96.30;;;;;;4921356;29;20923;-76
2022/03/19 06:41:15;;;;;;;29.63;17.53;;;1.40;96.30;;;;;;4902114;29;20468;-76
2022/03/19 06:43:40;;;;;;;34.43;18.17;;;1.40;96.30;;;;;;4918387;29;20542;-76
2022/03/19 06:46:06;;;;;;;28.67;16.17;;;1.30;96.30;;;;;;4902258;29;20791;-78
2022/03/19 06:48:31;;;;;;;35.57;18.67;;;1.30;96.30;;;;;;4918784;29;20184;-75
2022/03/19 06:50:57;;;;;;;27.93;17.07;;;1.30;96.30;;;;;;4901420;29;20203;-75
2022/03/19 06:53:23;;;;;;;35.13;16.67;;;1.30;96.30;;;;;;4918164;29;20179;-76
2022/03/19 06:55:49;;;;;;;27.10;16.60;;;1.40;96.30;;;;;;4918514;29;20176;-76
2022/03/19 06:58:15;;;;;;;30.07;17.43;;;1.40;96.30;;;;;;4918129;29;20417;-76
2022/03/19 07:00:41;;;;;;;31.50;15.73;;;1.40;96.30;;;;;;4917842;29;20476;-78
2022/03/19 07:03:07;;;;;;;29.07;15.53;;;1.40;96.30;;;;;;4901429;29;20188;-76
2022/03/19 07:05:33;;;;;;;29.67;15.03;;;1.40;96.30;;;;;;4901228;29;20425;-77
2022/03/19 07:08:00;;;;;;;35.03;16.37;;;1.40;96.30;;;;;;4917736;29;20412;-76
2022/03/19 07:10:26;;;;;;;41.20;15.87;;;1.50;96.30;;;;;;4918044;29;20203;-75
2022/03/19 07:12:53;;;;;;;33.80;15.67;;;1.60;96.30;;;;;;4918061;29;20408;-76
2022/03/19 07:15:21;;;;;;;25.40;15.33;;;1.80;96.30;;;;;;4921413;29;20188;-79
2022/03/19 07:17:58;;;;;;;34.33;16.80;;;2.00;96.30;;;;;;4917962;29;20480;-79
2022/03/19 07:20:24;;;;;;;29.83;16.10;;;2.30;96.30;;;;;;4921449;29;20405;-75
2022/03/19 07:23:04;;;;;;;33.73;15.70;;;2.80;96.30;;;;;;4917579;29;20854;-76
2022/03/19 07:25:32;;;;;;;29.00;15.90;;;3.10;96.30;;;;;;4917815;29;20393;-76
2022/03/19 07:28:01;;;;;;;31.10;16.20;;;3.60;96.30;;;;;;4917582;29;20420;-76
2022/03/19 07:30:28;;;;;;;32.80;17.13;;;4.00;96.30;;;;;;4917545;29;20443;-76
2022/03/19 07:32:53;;;;;;;28.27;15.73;;;5.40;96.30;;;;;;4917471;29;20472;-76
2022/03/19 07:35:19;;;;;;;26.10;14.30;;;6.80;96.30;;;;;;4917507;29;20945;-76
2022/03/19 07:37:45;;;;;;;19.80;11.10;;;7.40;96.30;;;;;;4917304;29;20475;-76
2022/03/19 07:40:14;;;;;;;23.73;10.30;;;7.10;96.30;;;;;;4917396;29;20420;-76
2022/03/19 07:42:40;;;;;;;20.00;10.47;;;5.50;96.30;;;;;;4917354;29;20428;-78
2022/03/19 07:45:07;;;;;;;21.77;12.27;;;4.60;96.30;;;;;;4917354;29;20831;-78
2022/03/19 07:47:34;;;;;;;28.97;13.47;;;4.10;96.30;;;;;;4917062;29;20415;-77
2022/03/19 07:50:00;;;;;;;23.47;12.40;;;3.90;96.30;;;;;;4900353;29;20427;-76
2022/03/19 07:52:27;;;;;;;22.60;11.67;;;3.60;96.30;;;;;;4916768;29;21024;-78
2022/03/19 07:54:54;;;;;;;24.90;12.77;;;3.40;96.30;;;;;;4901101;29;20432;-78
2022/03/19 07:57:21;;;;;;;20.40;15.03;;;3.30;96.30;;;;;;4900908;29;20930;-79
2022/03/19 07:59:47;;;;;;;20.03;11.60;;;2.80;96.30;;;;;;4917484;29;20492;-78
2022/03/19 08:02:12;;;;;;;24.47;13.33;;;2.70;96.30;;;;;;4900573;29;21076;-79
2022/03/19 08:04:38;;;;;;;30.60;15.33;;;2.60;96.30;;;;;;4918075;29;20231;-79
2022/03/19 08:07:03;;;;;;;29.93;15.97;;;2.70;96.30;;;;;;4917860;29;20181;-79
2022/03/19 08:09:29;;;;;;;30.77;15.50;;;2.70;96.30;;;;;;4917738;29;20654;-79
2022/03/19 08:11:56;;;;;;;33.93;16.73;;;2.90;96.30;;;;;;4917451;29;20279;-79
2022/03/19 08:14:21;;;;;;;27.40;16.73;;;3.00;96.30;;;;;;4900690;29;20476;-79
2022/03/19 08:16:47;;;;;;;30.93;15.10;;;3.00;96.30;;;;;;4900779;29;20424;-80
2022/03/19 08:19:14;;;;;;;29.50;17.47;;;2.90;96.30;;;;;;4900188;29;20185;-79
2022/03/19 08:21:43;;;;;;;30.23;14.93;;;2.80;96.30;;;;;;4917367;29;20204;-80
2022/03/19 08:24:08;;;;;;;25.23;14.83;;;2.70;96.30;;;;;;4900393;29;20429;-80
2022/03/19 08:26:34;;;;;;;27.80;14.70;;;2.40;96.30;;;;;;4900704;29;20431;-79
2022/03/19 08:29:02;;;;;;;26.60;14.17;;;2.30;96.30;;;;;;4900423;29;20180;-80
2022/03/19 08:31:28;;;;;;;22.20;14.40;;;2.30;96.30;;;;;;4900076;29;20200;-79
2022/03/19 08:33:55;;;;;;;27.10;14.53;;;2.20;96.30;;;;;;4900256;29;20427;-79
2022/03/19 08:36:20;;;;;;;33.90;17.33;;;2.00;96.30;;;;;;4900796;29;20794;-80
2022/03/19 08:41:31;;;;;;;37.67;18.50;;;2.40;96.30;;;;;;4917393;29;20244;-80
2022/03/19 08:43:58;;;;;;;31.27;16.57;;;2.70;96.30;;;;;;4900443;29;20428;-80
2022/03/19 08:46:24;;;;;;;37.87;16.73;;;2.70;96.30;;;;;;4917508;29;20232;-79
2022/03/19 08:48:49;;;;;;;26.27;14.80;;;2.40;96.30;;;;;;4917652;29;20423;-80
2022/03/19 08:53:59;;;;;;;30.43;18.50;;;2.30;96.30;;;;;;4917387;29;20243;-78
2022/03/19 08:56:25;;;;;;;35.33;17.40;;;2.40;96.30;;;;;;4900546;29;20428;-79
2022/03/19 08:58:50;;;;;;;37.27;18.47;;;2.20;96.30;;;;;;4900701;29;20428;-79
2022/03/19 09:01:16;;;;;;;28.73;17.00;;;2.20;96.30;;;;;;4900623;29;20208;-80
2022/03/19 09:03:42;;;;;;;28.90;17.13;;;2.20;96.30;;;;;;4899627;29;20173;-80
2022/03/19 09:06:10;;;;;;;36.83;20.43;;;2.30;96.30;;;;;;4900529;29;20176;-79
2022/03/19 09:08:35;;;;;;;43.07;18.77;;;2.30;96.30;;;;;;4900198;29;20193;-78
2022/03/19 09:11:01;;;;;;;43.00;18.47;;;2.40;96.30;;;;;;4900241;29;20981;-78
2022/03/19 09:13:26;;;;;;;29.17;18.87;;;2.50;96.30;;;;;;4900240;29;20187;-80
2022/03/19 09:15:52;;;;;;;39.10;19.47;;;2.60;96.30;;;;;;4900466;29;20191;-80
2022/03/19 09:18:20;;;;;;;33.33;18.87;;;2.50;96.30;;;;;;4900170;29;20217;-79
2022/03/19 09:20:45;;;;;;;31.70;18.07;;;2.50;96.30;;;;;;4899785;29;20216;-79
2022/03/19 09:23:10;;;;;;;30.10;17.70;;;2.60;96.30;;;;;;4900331;29;20503;-80
2022/03/19 09:25:37;;;;;;;35.90;17.63;;;2.60;96.30;;;;;;4900228;29;20208;-79
2022/03/19 09:28:03;;;;;;;28.10;16.67;;;2.60;96.30;;;;;;4899695;29;20654;-80
2022/03/19 09:30:28;;;;;;;27.07;15.93;;;2.50;96.30;;;;;;4901289;29;20440;-80
2022/03/19 09:32:57;;;;;;;20.37;15.50;;;2.50;96.30;;;;;;4900483;29;20194;-79
2022/03/19 09:35:23;;;;;;;25.63;14.83;;;2.60;96.30;;;;;;4916951;29;20714;-79
2022/03/19 09:37:50;;;;;;;20.40;12.33;;;2.60;96.30;;;;;;4899319;29;20412;-79
2022/03/19 09:40:18;;;;;;;19.00;12.73;;;2.50;96.30;;;;;;4900500;29;20463;-79
2022/03/19 09:42:47;;;;;;;16.00;9.60;;;2.40;96.30;;;;;;4917618;29;20511;-80
2022/03/19 09:45:13;;;;;;;24.57;14.77;;;2.40;96.30;;;;;;4900082;29;20424;-79
2022/03/19 09:47:38;;;;;;;25.50;13.53;;;2.40;96.30;;;;;;4917016;29;20477;-79
2022/03/19 09:50:04;;;;;;;18.17;10.60;;;2.50;96.30;;;;;;4917683;29;20204;-79
2022/03/19 09:52:35;;;;;;;21.47;11.97;;;2.60;96.30;;;;;;4917058;29;20204;-79
2022/03/19 09:55:03;;;;;;;27.30;13.20;;;2.60;96.30;;;;;;4917525;29;20425;-79
2022/03/19 09:57:29;;;;;;;19.77;8.47;;;2.50;96.30;;;;;;4916587;29;20499;-78
2022/03/19 09:59:54;;;;;;;24.30;13.23;;;2.40;96.30;;;;;;4916659;29;20492;-78
2022/03/19 10:02:20;;;;;;;24.80;13.43;;;2.40;96.30;;;;;;4899661;29;20546;-79
2022/03/19 10:04:45;;;;;;;22.97;11.93;;;2.50;96.30;;;;;;4899662;29;20182;-78
2022/03/19 10:09:56;;;;;;;22.77;14.20;;;2.40;96.30;;;;;;4916521;29;20172;-78
2022/03/19 10:12:30;;;;;;;30.90;15.53;;;2.40;96.30;;;;;;4899794;29;20447;-78
2022/03/19 10:14:57;;;;;;;18.30;9.33;;;2.40;96.30;;;;;;4918629;29;20756;-77
2022/03/19 10:17:32;;;;;;;31.17;12.20;;;2.40;96.30;;;;;;4903838;29;20523;-78
2022/03/19 10:20:12;;;;;;;22.60;14.13;;;2.60;96.30;;;;;;4902997;29;20496;-76
2022/03/19 10:22:45;;;;;;;29.13;14.97;;;2.90;96.30;;;;;;4922375;29;20450;-80
2022/03/19 10:25:17;;;;;;;20.73;13.30;;;3.20;96.30;;;;;;4921641;29;20400;-80
2022/03/19 10:27:44;;;;;;;22.03;13.43;;;3.40;96.30;;;;;;4920589;29;20560;-80
2022/03/19 10:30:16;;;;;;;13.07;7.50;;;3.20;96.30;;;;;;4922554;29;20412;-80
2022/03/19 10:32:46;;;;;;;23.87;12.70;;;3.20;96.30;;;;;;4904324;29;20458;-76
2022/03/19 10:35:31;;;;;;;19.23;11.80;;;3.20;96.30;;;;;;4902236;29;20460;-75
2022/03/19 10:37:59;;;;;;;17.40;10.93;;;3.10;96.30;;;;;;4922917;29;20412;-76
2022/03/19 10:40:42;;;;;;;16.37;10.80;;;3.00;96.30;;;;;;4901949;29;20423;-80
2022/03/19 10:43:10;;;;;;;10.17;7.57;;;3.10;96.30;;;;;;4902679;29;20420;-76
2022/03/19 10:45:48;;;;;;;12.80;8.30;;;2.90;96.30;;;;;;4903651;29;20458;-76
2022/03/19 10:48:21;;;;;;;19.83;11.80;;;2.90;96.30;;;;;;4904236;29;20527;-80
2022/03/19 10:50:48;;;;;;;10.90;8.30;;;2.80;96.30;;;;;;4920224;29;20564;-76
2022/03/19 10:53:14;;;;;;;14.90;8.33;;;2.90;96.30;;;;;;4919090;29;20512;-80
2022/03/19 10:55:40;;;;;;;21.67;10.47;;;2.80;96.30;;;;;;4920265;29;20494;-80
2022/03/19 10:58:06;;;;;;;19.03;10.67;;;2.90;96.30;;;;;;4903276;29;20412;-80
2022/03/19 11:00:34;;;;;;;14.50;10.37;;;3.00;96.30;;;;;;4902012;29;20207;-80
2022/03/19 11:03:06;;;;;;;17.20;11.27;;;3.10;96.30;;;;;;4919855;29;20978;-80
2022/03/19 11:05:34;;;;;;;15.37;9.63;;;3.30;96.30;;;;;;4902955;29;20412;-80
2022/03/19 11:08:02;;;;;;;24.83;13.27;;;3.30;96.30;;;;;;4919459;29;21051;-80
2022/03/19 11:10:28;;;;;;;12.03;7.53;;;3.40;96.30;;;;;;4902382;29;20428;-80
2022/03/19 11:12:57;;;;;;;18.00;11.00;;;3.30;96.30;;;;;;4902471;29;20416;-80
2022/03/19 11:15:25;;;;;;;20.73;11.40;;;3.40;96.30;;;;;;4919683;29;20529;-80
2022/03/19 11:17:53;;;;;;;20.67;11.50;;;3.30;96.30;;;;;;4902293;29;20424;-80
2022/03/19 11:20:19;;;;;;;14.07;9.07;;;3.20;96.30;;;;;;4902000;29;20420;-80
2022/03/19 11:22:55;;;;;;;16.73;8.57;;;3.20;96.30;;;;;;4918782;29;20463;-80
2022/03/19 11:25:27;;;;;;;17.53;9.63;;;3.10;96.30;;;;;;4901716;29;20180;-79
2022/03/19 11:28:03;;;;;;;34.87;9.87;;;3.10;96.30;;;;;;4900948;29;20421;-80
2022/03/19 11:30:42;;;;;;;10.53;8.13;;;3.10;96.30;;;;;;4901909;29;20459;-80
2022/03/19 11:33:20;;;;;;;15.43;9.27;;;3.20;96.30;;;;;;4901539;29;20447;-80
2022/03/19 11:35:56;;;;;;;14.73;9.77;;;3.20;96.30;;;;;;4901884;29;20421;-79
2022/03/19 11:38:23;;;;;;;16.50;9.73;;;3.30;96.30;;;;;;4901931;29;20416;-80
2022/03/19 11:40:54;;;;;;;22.47;10.43;;;3.20;96.30;;;;;;4918504;29;20460;-80
2022/03/19 11:43:30;;;;;;;30.20;9.30;;;3.20;96.30;;;;;;4901780;29;20412;-80
2022/03/19 11:46:10;;;;;;;13.03;9.90;;;3.50;96.30;;;;;;4901558;29;20444;-80
2022/03/19 11:48:36;;;;;;;17.10;9.80;;;3.40;96.30;;;;;;4901133;29;20423;-80
2022/03/19 11:51:25;;;;;;;14.77;8.40;;;3.70;96.30;;;;;;4918429;29;20432;-80
2022/03/19 11:54:01;;;;;;;15.93;10.60;;;3.70;96.30;;;;;;4901653;29;20675;-80
2022/03/19 11:56:38;;;;;;;18.63;8.10;;;3.80;96.30;;;;;;4901634;29;20946;-79
2022/03/19 11:59:06;;;;;;;15.83;9.50;;;4.00;96.30;;;;;;4918542;29;20424;-80
2022/03/19 12:01:45;;;;;;;12.73;8.93;;;4.10;96.30;;;;;;4918811;29;20496;-80
2022/03/19 12:04:11;;;;;;;19.93;10.83;;;4.30;96.30;;;;;;4918795;29;20408;-80
2022/03/19 12:06:38;;;;;;;12.37;9.73;;;4.90;96.30;;;;;;4901211;29;20420;-78
2022/03/19 12:09:04;;;;;;;11.07;8.83;;;5.10;96.30;;;;;;4917667;29;20416;-80
2022/03/19 12:11:32;;;;;;;9.73;8.70;;;5.20;96.30;;;;;;4917781;29;20453;-79
2022/03/19 12:13:58;;;;;;;13.30;8.40;;;4.90;96.30;;;;;;4900812;29;20183;-80
2022/03/19 12:16:43;;;;;;;11.03;8.67;;;5.00;96.30;;;;;;4917668;29;20420;-80
2022/03/19 12:19:09;;;;;;;13.73;10.00;;;5.20;96.30;;;;;;4917409;29;20320;-79
2022/03/19 12:21:43;;;;;;;13.83;8.77;;;5.80;96.30;;;;;;4900326;29;21247;-80
2022/03/19 12:24:40;;;;;;;12.47;8.30;;;6.20;96.30;;;;;;4900519;29;20472;-80
2022/03/19 12:27:06;;;;;;;12.30;7.40;;;6.00;96.30;;;;;;4900626;29;20424;-80
2022/03/19 12:29:32;;;;;;;12.10;7.30;;;5.70;96.30;;;;;;4900175;29;20435;-80
2022/03/19 12:31:58;;;;;;;7.63;6.40;;;6.00;96.30;;;;;;4900132;29;20220;-79
2022/03/19 12:34:26;;;;;;;8.13;6.17;;;6.00;96.30;;;;;;4900272;29;20416;-79
2022/03/19 12:36:58;;;;;;;10.90;6.17;;;5.90;96.30;;;;;;4900200;29;20188;-80
2022/03/19 12:39:24;;;;;;;9.00;5.90;;;5.40;96.30;;;;;;4900040;29;20436;-79
2022/03/19 12:41:49;;;;;;;10.40;7.30;;;5.40;96.30;;;;;;4900115;29;20472;-80
2022/03/19 12:44:29;;;;;;;12.10;7.30;;;5.50;96.30;;;;;;4918200;29;20609;-76
2022/03/19 12:47:02;;;;;;;7.27;4.87;;;6.00;96.30;;;;;;4916998;29;20153;-76
2022/03/19 12:49:29;;;;;;;12.27;8.00;;;6.00;96.30;;;;;;4898507;29;20412;-76
2022/03/19 13:17:48;;;;;;;13.80;8.43;;;5.90;96.30;;;;;;5345405;23;20490;-77
2022/03/19 13:20:14;;;;;;;19.20;9.57;;;5.90;96.30;;;;;;4934932;29;20590;-76
2022/03/19 13:22:39;;;;;;;13.30;8.57;;;6.30;96.30;;;;;;4934883;29;20200;-79
2022/03/19 13:25:05;;;;;;;11.70;7.17;;;6.60;96.30;;;;;;4934942;29;20233;-76
2022/03/19 13:27:33;;;;;;;16.30;11.40;;;5.90;96.30;;;;;;4934705;29;20176;-76
2022/03/19 13:30:00;;;;;;;11.67;7.50;;;5.60;96.30;;;;;;4918359;29;20442;-76
2022/03/19 13:32:25;;;;;;;12.40;8.90;;;5.60;96.30;;;;;;5899845;23;20477;-80
2022/03/19 13:34:52;;;;;;;12.33;8.43;;;5.90;96.30;;;;;;4935498;29;20412;-80
2022/03/19 13:37:21;;;;;;;14.80;8.20;;;6.00;96.30;;;;;;4936554;29;20172;-80
2022/03/19 13:39:56;;;;;;;16.83;9.50;;;6.00;96.30;;;;;;4918321;29;20423;-80
2022/03/19 13:42:29;;;;;;;14.13;9.70;;;5.80;96.30;;;;;;4918518;29;20521;-79
2022/03/19 13:45:12;;;;;;;15.27;10.20;;;6.10;96.30;;;;;;4918825;29;20801;-80
2022/03/19 13:47:41;;;;;;;18.83;12.00;;;5.90;96.30;;;;;;4935529;29;20785;-80
2022/03/19 13:50:09;;;;;;;15.60;11.77;;;6.30;96.30;;;;;;4919700;29;20419;-80
2022/03/19 13:52:49;;;;;;;17.27;11.80;;;6.30;96.30;;;;;;4939799;29;20965;-80
2022/03/19 13:55:16;;;;;;;20.20;10.27;;;6.30;96.30;;;;;;4941030;29;20408;-79
2022/03/19 13:57:46;;;;;;;21.17;12.83;;;6.30;96.30;;;;;;4924746;29;20416;-80
2022/03/19 14:00:23;;;;;;;19.20;10.10;;;6.40;96.30;;;;;;4922442;29;20459;-80
2022/03/19 14:03:05;;;;;;;14.23;9.23;;;6.70;96.30;;;;;;4923552;29;20458;-80
2022/03/19 14:05:43;;;;;;;20.90;13.10;;;6.20;96.30;;;;;;4922357;29;20502;-80
2022/03/19 14:08:15;;;;;;;17.33;11.13;;;6.50;96.30;;;;;;4939580;29;20403;-80
2022/03/19 14:10:53;;;;;;;20.17;12.60;;;6.60;95.60;;;;;;4939239;29;20526;-80
2022/03/19 14:13:20;;;;;;;23.57;12.87;;;6.50;95.70;;;;;;4939304;29;20418;-80
2022/03/19 14:15:53;;;;;;;13.97;9.70;;;6.70;95.60;;;;;;4922269;29;21000;-80
2022/03/19 14:18:26;;;;;;;14.60;9.33;;;6.50;94.30;;;;;;4938878;29;20502;-78
2022/03/19 14:20:52;;;;;;;18.43;11.47;;;6.50;93.10;;;;;;4922404;29;20823;-80
2022/03/19 14:23:19;;;;;;;11.13;8.20;;;6.50;92.00;;;;;;4921930;29;20940;-80
2022/03/19 14:25:46;;;;;;;19.40;12.57;;;6.70;90.20;;;;;;4939466;29;20411;-80
2022/03/19 14:28:13;;;;;;;18.70;12.30;;;6.70;88.60;;;;;;4921566;29;20411;-80
2022/03/19 14:30:40;;;;;;;13.33;9.90;;;6.70;89.00;;;;;;4938895;29;20433;-80
2022/03/19 14:33:08;;;;;;;14.87;11.10;;;7.00;88.20;;;;;;4921673;29;20801;-79
2022/03/19 14:36:02;;;;;;;10.63;7.80;;;7.20;87.20;;;;;;4939316;29;20475;-80
2022/03/19 14:38:33;;;;;;;17.67;9.10;;;7.30;82.60;;;;;;4939087;29;20422;-80
2022/03/19 14:41:00;;;;;;;17.63;8.67;;;7.20;81.80;;;;;;4938745;29;20446;-80
2022/03/19 14:43:27;;;;;;;18.67;10.90;;;7.10;82.00;;;;;;4921647;29;20419;-79
2022/03/19 14:45:58;;;;;;;15.20;9.47;;;7.30;81.90;;;;;;4921557;29;20422;-80
2022/03/19 14:48:26;;;;;;;15.87;10.67;;;7.40;79.80;;;;;;4921555;29;20412;-80
2022/03/19 14:50:52;;;;;;;16.17;8.50;;;7.30;80.20;;;;;;4938993;29;20780;-80
2022/03/19 14:53:19;;;;;;;15.60;10.23;;;7.20;78.50;;;;;;4921984;29;20482;-80
2022/03/19 14:55:46;;;;;;;13.47;9.30;;;6.90;78.00;;;;;;4921942;29;20833;-80
2022/03/19 14:58:14;;;;;;;16.73;11.83;;;7.00;79.40;;;;;;4939117;29;20997;-80
2022/03/19 15:00:40;;;;;;;13.43;9.13;;;7.00;79.00;;;;;;4921750;29;20475;-80
2022/03/19 15:03:06;;;;;;;14.33;8.80;;;6.90;77.80;;;;;;4937746;29;20424;-80
2022/03/19 15:05:31;;;;;;;13.70;9.70;;;6.70;77.50;;;;;;4921400;29;20180;-80
2022/03/19 15:07:57;;;;;;;13.03;9.00;;;6.80;78.00;;;;;;4921028;29;20795;-80
2022/03/19 15:10:23;;;;;;;13.93;8.20;;;6.70;77.80;;;;;;4938429;29;20214;-80
2022/03/19 15:12:49;;;;;;;17.53;10.90;;;6.60;77.00;;;;;;4921443;29;20273;-80
2022/03/19 15:15:15;;;;;;;14.87;10.70;;;6.60;77.40;;;;;;4938343;29;20456;-80
2022/03/19 15:17:40;;;;;;;15.23;8.10;;;6.70;77.10;;;;;;4937366;29;20419;-80
2022/03/19 15:20:11;;;;;;;19.73;9.73;;;6.80;75.80;;;;;;4937304;29;20198;-80
2022/03/19 15:22:38;;;;;;;16.80;8.43;;;6.90;76.20;;;;;;4937447;29;20618;-81
2022/03/19 15:25:09;;;;;;;12.83;8.30;;;7.00;75.50;;;;;;4937149;29;20431;-80
2022/03/19 15:27:36;;;;;;;13.30;8.43;;;7.00;74.60;;;;;;4937021;29;20407;-80
2022/03/19 15:30:04;;;;;;;15.90;8.93;;;7.00;76.10;;;;;;4937114;29;20848;-79
2022/03/19 15:32:31;;;;;;;16.80;9.53;;;6.80;74.90;;;;;;4919722;29;20536;-79
2022/03/19 15:34:58;;;;;;;12.93;6.50;;;6.70;75.90;;;;;;4919111;29;20527;-80
2022/03/19 15:37:24;;;;;;;11.73;7.70;;;6.70;75.60;;;;;;4919106;29;20427;-80
2022/03/19 15:39:50;;;;;;;12.33;7.63;;;6.60;73.50;;;;;;4936045;29;20422;-80
2022/03/19 15:42:16;;;;;;;16.40;8.27;;;6.60;73.60;;;;;;4935854;29;21035;-79
2022/03/19 15:44:41;;;;;;;15.70;10.30;;;6.50;74.10;;;;;;4918997;29;20428;-80
2022/03/19 15:47:07;;;;;;;18.80;11.27;;;6.50;74.70;;;;;;4919012;29;20187;-80
2022/03/19 15:49:32;;;;;;;10.47;7.20;;;6.50;75.40;;;;;;4918873;29;20179;-80
2022/03/19 15:51:58;;;;;;;9.77;7.17;;;6.30;75.20;;;;;;4935806;29;20254;-80
2022/03/19 15:54:23;;;;;;;14.63;10.37;;;6.20;75.60;;;;;;4918801;29;20179;-80
2022/03/19 15:56:49;;;;;;;18.17;10.83;;;6.30;76.00;;;;;;4918595;29;20548;-80
2022/03/19 15:59:14;;;;;;;19.00;11.00;;;6.20;76.50;;;;;;4935421;29;20180;-80
2022/03/19 16:01:41;;;;;;;17.00;9.30;;;6.30;77.50;;;;;;4935451;29;20425;-80
2022/03/19 16:04:07;;;;;;;17.00;8.73;;;6.20;77.10;;;;;;4918737;29;20179;-80
2022/03/19 16:06:33;;;;;;;16.23;8.07;;;6.20;77.40;;;;;;4918507;29;20427;-80
2022/03/19 16:08:59;;;;;;;9.30;6.30;;;6.10;77.90;;;;;;4923299;29;20785;-80
2022/03/19 16:11:24;;;;;;;21.93;8.00;;;6.00;77.90;;;;;;4939575;29;20725;-80
2022/03/19 16:13:50;;;;;;;15.63;10.57;;;5.90;77.00;;;;;;4935263;29;20179;-80
2022/03/19 16:16:15;;;;;;;12.37;8.27;;;5.90;78.00;;;;;;4918283;29;20606;-79
2022/03/19 16:18:43;;;;;;;15.20;9.90;;;5.90;77.10;;;;;;4918446;29;20224;-80
2022/03/19 16:21:09;;;;;;;17.50;10.37;;;5.90;77.80;;;;;;4936753;29;20203;-80
2022/03/19 16:23:34;;;;;;;13.63;8.50;;;5.80;78.30;;;;;;4936867;29;20466;-79
2022/03/19 16:26:00;;;;;;;11.00;5.70;;;5.80;78.30;;;;;;4920356;29;20952;-79
2022/03/19 16:28:25;;;;;;;13.37;8.67;;;5.60;77.70;;;;;;4936214;29;20601;-80
2022/03/19 16:30:51;;;;;;;13.93;10.10;;;5.50;77.70;;;;;;4935480;29;20187;-80
2022/03/19 16:33:16;;;;;;;8.17;6.20;;;5.40;78.80;;;;;;4885000;29;1003800;-80
2022/03/19 16:35:42;;;;;;;19.17;9.30;;;5.40;77.80;;;;;;4936219;29;20172;-79
2022/03/19 16:38:07;;;;;;;11.77;8.37;;;5.30;77.40;;;;;;4918805;29;20210;-80
2022/03/19 16:40:33;;;;;;;13.17;8.77;;;5.30;77.90;;;;;;4918753;29;20207;-79
2022/03/19 16:42:59;;;;;;;11.67;8.60;;;5.20;77.50;;;;;;4918665;29;20299;-79
2022/03/19 16:45:24;;;;;;;12.30;8.07;;;5.10;78.40;;;;;;4935807;29;20547;-79
2022/03/19 16:47:50;;;;;;;17.57;10.57;;;5.00;78.70;;;;;;4918431;29;20669;-80
2022/03/19 16:50:16;;;;;;;16.07;9.10;;;5.00;78.40;;;;;;4935825;29;20179;-80
2022/03/19 16:52:41;;;;;;;16.87;11.83;;;4.90;78.70;;;;;;4918783;29;20540;-79
2022/03/19 16:55:08;;;;;;;15.30;9.40;;;4.90;78.90;;;;;;4918775;29;20191;-80
2022/03/19 16:57:37;;;;;;;13.37;8.87;;;4.80;79.30;;;;;;4918495;29;20279;-80
2022/03/19 17:00:05;;;;;;;14.60;8.80;;;4.70;79.80;;;;;;4936382;29;20504;-78
2022/03/19 17:02:30;;;;;;;16.83;9.10;;;4.70;80.00;;;;;;4918279;29;20466;-80
2022/03/19 17:04:56;;;;;;;7.33;5.80;;;4.70;80.10;;;;;;4935711;29;20428;-80
2022/03/19 17:07:21;;;;;;;18.47;10.83;;;4.60;80.20;;;;;;4935477;29;20175;-79
2022/03/19 17:09:47;;;;;;;13.53;9.37;;;4.50;80.80;;;;;;4935479;29;20179;-78
2022/03/19 17:12:12;;;;;;;13.87;8.90;;;4.40;81.00;;;;;;4918209;29;20207;-80
2022/03/19 17:14:38;;;;;;;14.37;8.20;;;4.40;80.90;;;;;;4936088;29;20228;-80
2022/03/19 17:17:04;;;;;;;10.67;7.17;;;4.30;81.00;;;;;;4936933;29;20183;-79
2022/03/19 17:19:29;;;;;;;9.13;6.83;;;4.30;80.60;;;;;;4936423;29;20206;-79
2022/03/19 17:21:54;;;;;;;10.00;6.67;;;4.30;80.80;;;;;;4919196;29;20265;-79
2022/03/19 17:24:20;;;;;;;17.87;10.13;;;4.30;80.80;;;;;;4935671;29;20172;-79
2022/03/19 17:26:45;;;;;;;12.20;7.90;;;4.20;81.20;;;;;;4936715;29;20654;-78
2022/03/19 17:29:12;;;;;;;9.23;6.20;;;4.10;81.70;;;;;;4919645;29;20721;-80
2022/03/19 17:31:37;;;;;;;8.53;6.50;;;4.10;81.70;;;;;;4918877;29;20205;-80
2022/03/19 17:34:03;;;;;;;12.17;7.70;;;4.00;82.30;;;;;;4918074;29;20531;-80
2022/03/19 17:36:29;;;;;;;11.53;7.70;;;4.00;82.40;;;;;;4918196;29;20574;-80
2022/03/19 17:38:54;;;;;;;12.57;7.57;;;4.00;82.40;;;;;;4935086;29;20547;-79
2022/03/19 17:41:20;;;;;;;10.10;6.60;;;3.90;83.30;;;;;;4917914;29;20752;-79
2022/03/19 17:43:45;;;;;;;9.10;6.27;;;3.80;83.40;;;;;;4918213;29;20552;-80
2022/03/19 17:46:11;;;;;;;14.33;8.23;;;3.80;83.30;;;;;;4935192;29;20171;-80
2022/03/19 17:48:37;;;;;;;12.60;8.37;;;3.70;84.00;;;;;;4934917;29;20657;-80
2022/03/19 17:51:03;;;;;;;19.43;11.20;;;3.70;83.80;;;;;;4935003;29;20478;-80
2022/03/19 17:53:29;;;;;;;22.70;9.90;;;3.70;84.00;;;;;;4917939;29;20206;-80
2022/03/19 17:55:54;;;;;;;20.40;7.13;;;3.60;84.60;;;;;;4918225;29;20411;-80
2022/03/19 17:58:21;;;;;;;15.70;8.27;;;3.60;84.30;;;;;;4934704;29;20642;-80
2022/03/19 18:00:46;;;;;;;11.80;7.90;;;3.60;84.40;;;;;;4917920;29;20215;-80
2022/03/19 18:03:12;;;;;;;14.17;8.20;;;3.50;84.70;;;;;;4917793;29;20408;-79
2022/03/19 18:05:37;;;;;;;15.77;8.97;;;3.50;85.20;;;;;;4917806;29;20207;-79
2022/03/19 18:08:03;;;;;;;17.77;11.30;;;3.40;85.20;;;;;;4917606;29;20176;-80
2022/03/19 18:10:29;;;;;;;17.80;10.30;;;3.40;85.20;;;;;;4917762;29;20176;-80
2022/03/19 18:12:54;;;;;;;16.03;9.90;;;3.40;85.20;;;;;;4935718;29;20227;-80
2022/03/19 18:15:20;;;;;;;18.27;8.73;;;3.40;85.50;;;;;;4917925;29;20231;-80
2022/03/19 18:17:46;;;;;;;19.07;10.03;;;3.40;85.50;;;;;;4934995;29;20267;-79
2022/03/19 18:20:14;;;;;;;8.23;4.43;;;3.40;85.40;;;;;;4917860;29;20180;-79
2022/03/19 18:22:41;;;;;;;15.63;10.07;;;3.40;85.00;;;;;;4917628;29;20518;-80
2022/03/19 18:25:07;;;;;;;20.90;10.83;;;3.30;85.40;;;;;;4917729;29;20424;-80
2022/03/19 18:27:33;;;;;;;15.93;9.63;;;3.30;86.20;;;;;;4934526;29;21000;-79
2022/03/19 18:29:59;;;;;;;14.43;9.73;;;3.20;86.00;;;;;;4934476;29;20422;-80
2022/03/19 18:32:26;;;;;;;17.10;10.33;;;3.20;85.80;;;;;;4934674;29;20447;-80
2022/03/19 18:34:53;;;;;;;27.70;12.43;;;3.20;86.00;;;;;;4917550;29;21083;-80
2022/03/19 18:37:19;;;;;;;19.23;11.40;;;3.10;86.50;;;;;;4919794;29;20416;-80
2022/03/19 18:39:44;;;;;;;20.27;10.10;;;3.10;86.50;;;;;;4920252;29;20453;-78
2022/03/19 18:42:11;;;;;;;24.90;11.50;;;3.00;86.70;;;;;;4937818;29;20211;-80
2022/03/19 18:44:40;;;;;;;20.07;11.37;;;3.00;87.10;;;;;;4920839;29;20223;-80
2022/03/19 18:47:06;;;;;;;24.30;11.20;;;2.90;87.60;;;;;;4921080;29;20790;-80
2022/03/19 18:49:32;;;;;;;13.90;9.40;;;2.90;88.00;;;;;;4920832;29;20946;-80
2022/03/19 18:51:57;;;;;;;20.03;10.67;;;2.80;87.80;;;;;;4938302;29;20471;-80
2022/03/19 18:54:23;;;;;;;19.57;10.87;;;2.80;87.80;;;;;;4921204;29;20179;-79
2022/03/19 18:56:49;;;;;;;13.03;8.33;;;2.70;88.50;;;;;;4920596;29;20217;-80
2022/03/19 18:59:15;;;;;;;13.10;8.00;;;2.60;88.70;;;;;;4937713;29;20231;-79
2022/03/19 19:01:41;;;;;;;14.67;9.90;;;2.70;87.70;;;;;;4937735;29;20780;-79
2022/03/19 19:04:07;;;;;;;12.33;9.97;;;2.80;87.30;;;;;;4938224;29;20466;-80
2022/03/19 19:06:33;;;;;;;15.97;8.10;;;2.80;87.20;;;;;;4938251;29;20419;-80
2022/03/19 19:08:59;;;;;;;15.53;8.60;;;2.80;86.80;;;;;;4938016;29;20187;-80
2022/03/19 19:11:24;;;;;;;13.17;8.07;;;2.80;86.80;;;;;;4939994;29;20447;-80
2022/03/19 19:13:50;;;;;;;13.03;8.33;;;2.80;87.50;;;;;;4924008;29;20222;-79
2022/03/19 19:16:15;;;;;;;11.40;7.90;;;2.70;87.30;;;;;;4941262;29;20183;-79